BIENTÔT MET'MAP
version 2.0 !

Prévue avant fin octobre,
la nouvelle version sera
plus belle, plus complète
et hébergée sur un serveur
3 fois plus puissant...
et toujours gratuite !


Pas compatible ?
Essayez la version Mobile !

SE CONNECTER : | S'inscrire | Disclaimer | Découvrir Orbifly |
Code OACI :
Lgende : VFR VFR Marginal IFR IFR Intensif IFR Trs Intensif
Visi :
Plafond :
>= 8 km
>= 3000ft
5 8 km
1000 3000 ft
1500m 5 km
500 1000 ft
800 1500m
200 500 ft
< 800m
< 200 ft

METAR - LQMO Mostar - 25 Jan 2020 09:51 UTC - Data Source NOAA   


- Altitude de l'aérodrome : 156 ft
- Code IATA : OMO
- Pas de NOTAMs connus.


LQMO - Mostar

Dernier METAR connu : 2015/08/11 08:00 LQMO 110800Z VRB03KT 9999 FEW045 28/16 Q1011
TAF TAF LQMO
Valide du 25 à 06h jusqu'au 26 à 06h UTC


250500Z 2506/2606 14005KT 7000 SCT035 BKN050 TX11/2513Z TN04/2506Z
PROB40
TEMPO 2509/2520 5000 RA BR

Source NOAA


MET'MAP, la Météo Aéronautique d'un coup d'oeil ! - Copyright ORBIFLY Décembre 2007

Développement & Programmation : Alexandra Zaïnal
Co-Développement : Marc-Olivier Méhu
Soutien technique & logistique : Manuel Goepfert
Conception & Financement : Baudouin d'Aumeries